Airfield :
LOGIN :

Register | Disclaimer

   EN    FR    IT 

 










Legend :    VFR   Marginal VFR   IFR   Intensive IFR   Very Intensive IFR
Visi :
Ceiling :
>= 8 km
>= 3000ft
5 to 8 km
1000 to 3000 ft
1500m to 5 km
500 to 1000 ft
800 to 1500m
200 to 500 ft
< 800m
< 200 ft
Symbols :   Thunderstorms  Fog  Heavy snow  Heavy precipitations  Wind > 20 kt
SIGMETs :     Misc.  Thunderstorms  Icing  Turbulence  Mountain Waves  Volcanic Ashes






- Airport Elevation : 485 ft
- IATA code : QSA


LELL - Sabadell

CURRENT METAR :
  • 031100Z 24005KT 9999 FEW040 28/13 Q1013

EXPIRED METARs :
  • 031030Z 23007KT 180V280 9999 FEW040 27/13 Q1013
  • 031000Z 25006KT 210V310 9999 FEW040 27/14 Q1014
  • 030930Z 21003KT 9999 FEW040 26/14 Q1014
  • 030900Z VRB04KT 9999 FEW040 25/14 Q1014
  • 030830Z 27007KT 240V300 9999 FEW030 23/15 Q1014

TAF AMD TAF LELL
Valid from the 03 at 10:00 until the 04 at 09:00 UTC


031001Z 0310/0409 VRB05KT 9999 SCT050 TX29/0313Z TN19/0405Z
BECMG 0310/0312 17010KT
BECMG 0317/0320 VRB03KT



MET'MAP, your aeronautical weather chart ! - Copyright ORBIFLY December 2007 - Disclaimer

ORBIFLY MET'MAP TEAM :

Programming & Development : Alexandra Zaïnal
Concept & original design : Baudouin d'Aumeries
Assistance for programming : Marc-Olivier Méhu
Technical & hardware support : Manuel Goepfert

Contact : metmap@orbifly.com




SOURCES & CREDITS :

   NOAA